createdAt,value
2022-12-11T00:02:13.544Z,100.00
2022-12-11T00:07:07.038Z,100.00
2022-12-11T00:12:02.468Z,100.00
2022-12-11T00:16:57.414Z,99.06
2022-12-11T00:21:51.065Z,96.17
2022-12-11T00:26:44.441Z,93.77
2022-12-11T00:31:40.914Z,91.73
2022-12-11T00:36:35.967Z,90.14
2022-12-11T00:41:29.281Z,89.12
2022-12-11T00:46:22.767Z,88.90
2022-12-11T00:51:16.565Z,88.16
2022-12-11T00:56:17.317Z,87.07
2022-12-11T01:01:12.066Z,86.52
2022-12-11T01:06:06.178Z,86.04
2022-12-11T01:11:04.519Z,85.75
2022-12-11T01:15:59.222Z,85.74
2022-12-11T01:20:52.724Z,85.37
2022-12-11T01:25:46.107Z,85.26
2022-12-11T01:30:39.630Z,85.02
2022-12-11T01:35:34.328Z,85.05
2022-12-11T01:40:27.823Z,84.98
2022-12-11T01:45:42.264Z,84.72
2022-12-11T01:50:41.190Z,85.61
2022-12-11T01:55:40.310Z,85.99
2022-12-11T02:00:33.918Z,87.74
2022-12-11T02:05:27.455Z,88.33
2022-12-11T02:10:24.187Z,89.57
2022-12-11T02:15:24.715Z,90.00
2022-12-11T02:20:22.990Z,89.54
2022-12-11T02:25:22.881Z,89.50
2022-12-11T02:30:18.421Z,88.62
2022-12-11T02:35:20.157Z,87.66
2022-12-11T02:40:18.342Z,86.29
2022-12-11T02:45:13.849Z,84.96
2022-12-11T02:50:13.875Z,83.85
2022-12-11T02:55:18.253Z,82.36
2022-12-11T03:00:19.294Z,81.80
2022-12-11T03:05:14.862Z,80.66
2022-12-11T03:10:14.734Z,79.21
2022-12-11T03:15:19.153Z,78.38
2022-12-11T03:20:52.102Z,77.80
2022-12-11T03:25:53.643Z,77.27
2022-12-11T03:30:49.967Z,76.75
2022-12-11T03:35:50.042Z,75.93
2022-12-11T03:40:54.493Z,75.27
2022-12-11T03:45:50.356Z,74.87
2022-12-11T03:50:47.047Z,74.28
2022-12-11T03:55:42.156Z,74.11
2022-12-11T04:00:38.876Z,73.15
2022-12-11T04:05:32.433Z,73.01
2022-12-11T04:10:27.602Z,72.74
2022-12-11T04:15:21.423Z,72.61
2022-12-11T04:20:33.828Z,72.68
2022-12-11T04:25:31.344Z,72.49
2022-12-11T04:30:34.123Z,72.31
2022-12-11T04:35:32.786Z,72.37
2022-12-11T04:40:30.696Z,72.42
2022-12-11T04:45:26.663Z,72.33
2022-12-11T04:50:27.769Z,72.36
2022-12-11T04:55:26.794Z,72.51
2022-12-11T05:00:23.919Z,72.39
2022-12-11T05:05:17.295Z,72.22
2022-12-11T05:10:12.563Z,72.38
2022-12-11T05:15:24.938Z,72.22
2022-12-11T05:20:19.962Z,72.23
2022-12-11T05:25:16.505Z,72.22
2022-12-11T05:30:13.673Z,72.37
2022-12-11T05:35:07.773Z,72.68
2022-12-11T05:40:06.440Z,72.52
2022-12-11T05:45:04.624Z,72.70
2022-12-11T05:50:05.937Z,73.00
2022-12-11T05:55:00.734Z,73.17
2022-12-11T05:59:55.511Z,73.19
2022-12-11T06:04:49.819Z,73.32
2022-12-11T06:09:43.309Z,73.78
2022-12-11T06:14:38.466Z,73.80
2022-12-11T06:19:37.110Z,74.01
2022-12-11T06:24:32.591Z,74.03
2022-12-11T06:29:26.021Z,74.08
2022-12-11T06:34:19.509Z,74.64
2022-12-11T06:39:16.978Z,74.56
2022-12-11T06:44:11.584Z,75.08
2022-12-11T06:49:05.015Z,75.11
2022-12-11T06:53:58.531Z,74.69
2022-12-11T06:58:55.078Z,74.82
2022-12-11T07:03:49.792Z,75.13
2022-12-11T07:08:46.887Z,75.05
2022-12-11T07:13:44.437Z,74.92
2022-12-11T07:18:42.119Z,74.36
2022-12-11T07:23:36.622Z,74.61
2022-12-11T07:28:45.388Z,74.85
2022-12-11T07:33:41.526Z,74.77
2022-12-11T07:38:35.713Z,74.97
2022-12-11T07:43:35.536Z,75.07
2022-12-11T07:48:43.402Z,75.17
2022-12-11T07:53:41.168Z,75.21
2022-12-11T07:58:56.833Z,75.31
2022-12-11T08:04:00.676Z,74.20
2022-12-11T08:09:17.417Z,74.18
2022-12-11T08:14:17.939Z,72.56
2022-12-11T08:19:21.666Z,72.43
2022-12-11T08:30:27.986Z,71.77
2022-12-11T08:35:36.211Z,71.31
2022-12-11T08:40:49.572Z,69.44
2022-12-11T08:46:17.448Z,67.39
2022-12-11T08:51:37.789Z,68.28
2022-12-11T08:56:41.917Z,69.95
2022-12-11T09:01:39.575Z,73.20
2022-12-11T09:06:42.383Z,72.06
2022-12-11T09:11:45.713Z,69.84
2022-12-11T09:16:50.027Z,66.25
2022-12-11T09:22:00.685Z,60.51
2022-12-11T09:26:57.378Z,57.41
2022-12-11T09:32:00.379Z,56.59
2022-12-11T09:37:00.510Z,55.91
2022-12-11T09:42:32.564Z,58.93
2022-12-11T09:48:11.524Z,57.66
2022-12-11T09:53:33.771Z,57.47
2022-12-11T09:59:21.522Z,59.44
2022-12-11T10:04:53.609Z,59.25
2022-12-11T10:10:08.051Z,60.39
2022-12-11T10:15:51.448Z,60.67
2022-12-11T10:21:19.253Z,62.28
2022-12-11T10:32:51.546Z,64.28
2022-12-11T10:38:06.577Z,61.72
2022-12-11T10:43:06.801Z,62.70
2022-12-11T10:48:19.446Z,63.09
2022-12-11T10:53:43.455Z,63.47
2022-12-11T10:58:53.532Z,65.19
2022-12-11T11:04:30.325Z,67.83
2022-12-11T11:09:32.135Z,70.91
2022-12-11T11:14:29.608Z,72.54
2022-12-11T11:19:38.806Z,73.82
2022-12-11T11:24:42.072Z,74.24
2022-12-11T11:30:06.330Z,75.56
2022-12-11T11:35:21.846Z,76.18
2022-12-11T11:40:42.244Z,76.21
2022-12-11T11:45:57.725Z,75.49
2022-12-11T11:51:00.622Z,74.78
2022-12-11T11:56:08.439Z,75.11
2022-12-11T12:01:02.136Z,74.78
2022-12-11T12:06:50.658Z,73.84
2022-12-11T12:12:27.458Z,75.06
2022-12-11T12:17:58.359Z,73.58
2022-12-11T12:23:37.254Z,74.71
2022-12-11T12:28:49.524Z,74.83
2022-12-11T12:39:57.697Z,77.34
2022-12-11T12:45:24.133Z,77.77
2022-12-11T12:50:28.205Z,78.12
2022-12-11T12:55:49.639Z,78.32
2022-12-11T13:00:55.569Z,78.04
2022-12-11T13:06:12.825Z,79.79
2022-12-11T13:11:10.504Z,79.93
2022-12-11T13:16:45.469Z,79.29
2022-12-11T13:22:02.595Z,78.54
2022-12-11T13:27:16.255Z,78.99
2022-12-11T13:32:42.559Z,79.30
2022-12-11T13:38:03.818Z,79.43
2022-12-11T13:43:01.964Z,81.22
2022-12-11T13:48:51.651Z,79.02
2022-12-11T14:00:55.356Z,80.26
2022-12-11T14:06:18.023Z,80.69
2022-12-11T14:11:30.413Z,81.10
2022-12-11T14:16:31.022Z,81.35
2022-12-11T14:21:34.405Z,79.79
2022-12-11T14:26:31.136Z,80.43
2022-12-11T14:31:32.353Z,81.39
2022-12-11T14:36:27.904Z,81.80
2022-12-11T14:41:32.439Z,82.81
2022-12-11T14:46:36.441Z,79.71
2022-12-11T14:51:42.409Z,80.10
2022-12-11T14:56:36.403Z,81.13
2022-12-11T15:01:37.532Z,81.06
2022-12-11T15:06:46.929Z,80.14
2022-12-11T15:11:41.229Z,80.42
2022-12-11T15:16:45.804Z,81.81
2022-12-11T15:21:46.071Z,81.72
2022-12-11T15:26:49.679Z,82.14
2022-12-11T15:31:51.275Z,83.61
2022-12-11T15:37:09.684Z,83.80
2022-12-11T15:42:13.224Z,84.31
2022-12-11T15:47:20.339Z,84.71
2022-12-11T15:52:28.061Z,84.24
2022-12-11T15:57:35.176Z,84.42
2022-12-11T16:02:37.703Z,84.96
2022-12-11T16:07:37.120Z,83.44
2022-12-11T16:13:02.989Z,83.71
2022-12-11T16:18:27.109Z,84.41
2022-12-11T16:23:30.301Z,85.30
2022-12-11T16:28:31.065Z,86.75
2022-12-11T16:33:30.779Z,88.07
2022-12-11T16:38:27.425Z,88.58
2022-12-11T16:43:23.577Z,89.60
2022-12-11T16:48:19.221Z,90.38
2022-12-11T16:53:18.515Z,90.59
2022-12-11T16:58:19.084Z,91.25
2022-12-11T17:03:13.712Z,91.29
2022-12-11T17:08:17.312Z,92.68
2022-12-11T17:13:14.616Z,93.40
2022-12-11T17:18:09.294Z,94.34
2022-12-11T17:23:02.666Z,93.13
2022-12-11T17:27:56.898Z,93.87
2022-12-11T17:33:01.503Z,95.59
2022-12-11T17:37:57.417Z,96.19
2022-12-11T17:42:52.502Z,95.29
2022-12-11T17:47:55.414Z,96.07
2022-12-11T17:52:57.177Z,97.00
2022-12-11T17:57:50.560Z,97.55
2022-12-11T18:02:43.901Z,99.08
2022-12-11T18:07:51.623Z,98.42
2022-12-11T18:12:50.829Z,97.19
2022-12-11T18:17:50.053Z,97.51
2022-12-11T18:22:54.481Z,98.55
2022-12-11T18:27:47.907Z,97.70
2022-12-11T18:32:42.741Z,99.16
2022-12-11T18:37:41.531Z,97.58
2022-12-11T18:42:40.772Z,97.19
2022-12-11T18:47:34.330Z,96.78
2022-12-11T18:52:29.065Z,97.57
2022-12-11T18:57:26.671Z,98.58
2022-12-11T19:02:19.983Z,98.38
2022-12-11T19:07:13.639Z,98.12
2022-12-11T19:12:08.786Z,98.31
2022-12-11T19:17:03.323Z,98.30
2022-12-11T19:21:56.718Z,98.64
2022-12-11T19:26:50.090Z,97.29
2022-12-11T19:31:45.636Z,97.19
2022-12-11T19:36:40.934Z,96.90
2022-12-11T19:41:38.042Z,96.79
2022-12-11T19:46:32.091Z,96.74
2022-12-11T19:51:38.691Z,96.84
2022-12-11T19:56:32.751Z,97.00
2022-12-11T20:01:32.091Z,96.91
2022-12-11T20:06:30.510Z,96.00
2022-12-11T20:11:25.937Z,96.27
2022-12-11T20:16:33.677Z,96.11
2022-12-11T20:21:38.167Z,95.92
2022-12-11T20:26:40.693Z,96.37
2022-12-11T20:31:39.303Z,95.71
2022-12-11T20:36:34.909Z,95.38
2022-12-11T20:41:29.669Z,94.64
2022-12-11T20:46:26.361Z,93.97
2022-12-11T20:51:29.517Z,93.65
2022-12-11T20:56:24.632Z,93.45
2022-12-11T21:01:20.871Z,93.34
2022-12-11T21:06:23.846Z,93.50
2022-12-11T21:11:17.281Z,93.79
2022-12-11T21:16:14.418Z,93.68
2022-12-11T21:21:07.846Z,93.59
2022-12-11T21:26:07.706Z,93.62
2022-12-11T21:31:06.068Z,93.34
2022-12-11T21:36:00.611Z,93.25
2022-12-11T21:41:01.747Z,93.62
2022-12-11T21:46:02.456Z,94.21
2022-12-11T21:50:56.002Z,94.20
2022-12-11T21:55:53.581Z,93.01
2022-12-11T22:00:54.703Z,91.09
2022-12-11T22:05:52.240Z,89.91
2022-12-11T22:10:47.723Z,89.96
2022-12-11T22:15:42.653Z,89.77
2022-12-11T22:20:36.144Z,90.37
2022-12-11T22:25:31.267Z,89.99
2022-12-11T22:30:26.996Z,89.77
2022-12-11T22:35:26.843Z,89.74
2022-12-11T22:40:23.160Z,89.80
2022-12-11T22:45:18.058Z,89.61
2022-12-11T22:50:13.854Z,89.57
2022-12-11T22:55:08.250Z,89.18
2022-12-11T23:00:09.097Z,89.49
2022-12-11T23:05:04.320Z,89.58
2022-12-11T23:09:57.546Z,88.99
2022-12-11T23:14:52.883Z,88.99
2022-12-11T23:19:49.799Z,88.21
2022-12-11T23:24:44.485Z,88.29
2022-12-11T23:29:37.867Z,87.25
2022-12-11T23:34:31.234Z,86.95
2022-12-11T23:39:26.199Z,87.25
2022-12-11T23:44:20.967Z,87.05
2022-12-11T23:49:16.790Z,87.07
2022-12-11T23:54:10.044Z,87.15
2022-12-11T23:59:03.396Z,87.50
